sensor_id;sensor_type;location;lat;lon;timestamp;pressure;altitude;pressure_sealevel;temperature;humidity
77410;BME280;66481;51.332;22.804;2023-05-28T00:03:03;100288.13;;;4.56;90.92
77410;BME280;66481;51.332;22.804;2023-05-28T00:07:04;100291.94;;;4.47;90.25
77410;BME280;66481;51.332;22.804;2023-05-28T00:11:05;100288.88;;;4.36;91.56
77410;BME280;66481;51.332;22.804;2023-05-28T00:15:06;100295.59;;;4.43;92.89
77410;BME280;66481;51.332;22.804;2023-05-28T00:19:08;100294.56;;;4.47;92.42
77410;BME280;66481;51.332;22.804;2023-05-28T00:23:09;100284.44;;;4.38;90.83
77410;BME280;66481;51.332;22.804;2023-05-28T00:27:11;100293.22;;;4.37;91.62
77410;BME280;66481;51.332;22.804;2023-05-28T00:31:12;100287.97;;;4.37;93.01
77410;BME280;66481;51.332;22.804;2023-05-28T00:35:13;100278.50;;;4.32;92.52
77410;BME280;66481;51.332;22.804;2023-05-28T00:39:15;100284.78;;;4.28;92.35
77410;BME280;66481;51.332;22.804;2023-05-28T00:43:16;100276.44;;;4.19;92.52
77410;BME280;66481;51.332;22.804;2023-05-28T00:47:17;100272.91;;;4.20;93.60
77410;BME280;66481;51.332;22.804;2023-05-28T00:51:18;100286.94;;;4.41;96.30
77410;BME280;66481;51.332;22.804;2023-05-28T00:55:19;100286.47;;;4.31;94.65
77410;BME280;66481;51.332;22.804;2023-05-28T00:59:21;100279.88;;;4.21;93.32
77410;BME280;66481;51.332;22.804;2023-05-28T01:03:24;100271.44;;;4.12;93.83
77410;BME280;66481;51.332;22.804;2023-05-28T01:07:24;100268.97;;;4.08;94.00
77410;BME280;66481;51.332;22.804;2023-05-28T01:11:26;100269.66;;;4.13;95.49
77410;BME280;66481;51.332;22.804;2023-05-28T01:15:27;100266.47;;;4.05;94.76
77410;BME280;66481;51.332;22.804;2023-05-28T01:19:28;100263.13;;;4.01;93.92
77410;BME280;66481;51.332;22.804;2023-05-28T01:23:29;100258.13;;;3.95;93.24
77410;BME280;66481;51.332;22.804;2023-05-28T01:27:33;100253.22;;;3.86;93.59
77410;BME280;66481;51.332;22.804;2023-05-28T01:31:33;100251.75;;;3.79;93.06
77410;BME280;66481;51.332;22.804;2023-05-28T01:35:34;100260.34;;;3.82;95.71
77410;BME280;66481;51.332;22.804;2023-05-28T01:39:41;100258.75;;;3.78;94.41
77410;BME280;66481;51.332;22.804;2023-05-28T01:43:43;100252.00;;;3.72;94.75
77410;BME280;66481;51.332;22.804;2023-05-28T01:47:45;100250.50;;;3.65;94.50
77410;BME280;66481;51.332;22.804;2023-05-28T01:51:47;100254.78;;;3.68;94.21
77410;BME280;66481;51.332;22.804;2023-05-28T01:55:47;100253.81;;;3.70;93.90
77410;BME280;66481;51.332;22.804;2023-05-28T01:59:48;100252.16;;;3.68;93.78
77410;BME280;66481;51.332;22.804;2023-05-28T02:03:49;100253.13;;;3.65;93.26
77410;BME280;66481;51.332;22.804;2023-05-28T02:07:50;100256.94;;;3.56;93.88
77410;BME280;66481;51.332;22.804;2023-05-28T02:11:57;100251.84;;;3.52;93.79
77410;BME280;66481;51.332;22.804;2023-05-28T02:16:00;100255.41;;;3.49;94.98
77410;BME280;66481;51.332;22.804;2023-05-28T02:20:01;100255.38;;;3.51;96.40
77410;BME280;66481;51.332;22.804;2023-05-28T02:24:02;100249.78;;;3.62;97.27
77410;BME280;66481;51.332;22.804;2023-05-28T02:28:03;100254.88;;;3.65;97.21
77410;BME280;66481;51.332;22.804;2023-05-28T02:32:04;100252.00;;;3.72;95.44
77410;BME280;66481;51.332;22.804;2023-05-28T02:36:07;100247.78;;;3.92;94.39
77410;BME280;66481;51.332;22.804;2023-05-28T02:40:08;100248.72;;;4.13;95.01
77410;BME280;66481;51.332;22.804;2023-05-28T02:44:10;100244.22;;;4.17;94.80
77410;BME280;66481;51.332;22.804;2023-05-28T02:48:11;100245.34;;;4.33;94.86
77410;BME280;66481;51.332;22.804;2023-05-28T02:52:12;100231.84;;;4.42;92.09
77410;BME280;66481;51.332;22.804;2023-05-28T02:56:13;100249.03;;;4.71;91.32
77410;BME280;66481;51.332;22.804;2023-05-28T03:00:14;100246.75;;;4.84;91.19
77410;BME280;66481;51.332;22.804;2023-05-28T03:04:15;100248.66;;;5.01;90.60
77410;BME280;66481;51.332;22.804;2023-05-28T03:08:16;100241.41;;;5.08;89.32
77410;BME280;66481;51.332;22.804;2023-05-28T03:12:17;100243.44;;;5.22;89.88
77410;BME280;66481;51.332;22.804;2023-05-28T03:16:18;100242.28;;;5.48;89.62
77410;BME280;66481;51.332;22.804;2023-05-28T03:20:19;100243.78;;;6.12;88.78
77410;BME280;66481;51.332;22.804;2023-05-28T03:24:22;100243.34;;;7.29;85.32
77410;BME280;66481;51.332;22.804;2023-05-28T03:28:23;100238.75;;;8.32;81.06
77410;BME280;66481;51.332;22.804;2023-05-28T03:32:24;100233.28;;;9.41;77.83
77410;BME280;66481;51.332;22.804;2023-05-28T03:36:25;100227.81;;;10.02;75.73
77410;BME280;66481;51.332;22.804;2023-05-28T03:40:26;100230.94;;;10.90;71.10
77410;BME280;66481;51.332;22.804;2023-05-28T03:44:27;100227.78;;;11.88;68.03
77410;BME280;66481;51.332;22.804;2023-05-28T03:48:28;100224.94;;;12.52;65.84
77410;BME280;66481;51.332;22.804;2023-05-28T03:52:29;100225.50;;;13.40;60.79
77410;BME280;66481;51.332;22.804;2023-05-28T03:56:30;100215.59;;;13.53;59.04
77410;BME280;66481;51.332;22.804;2023-05-28T04:00:34;100216.22;;;14.02;58.87
77410;BME280;66481;51.332;22.804;2023-05-28T04:04:35;100223.25;;;14.90;55.42
77410;BME280;66481;51.332;22.804;2023-05-28T04:08:36;100219.59;;;15.33;54.37
77410;BME280;66481;51.332;22.804;2023-05-28T04:12:37;100210.72;;;16.25;52.43
77410;BME280;66481;51.332;22.804;2023-05-28T04:16:38;100211.91;;;16.71;50.12
77410;BME280;66481;51.332;22.804;2023-05-28T04:20:39;100211.19;;;16.99;50.27
77410;BME280;66481;51.332;22.804;2023-05-28T04:24:42;100208.97;;;16.94;47.22
77410;BME280;66481;51.332;22.804;2023-05-28T04:28:45;100215.84;;;16.97;47.74
77410;BME280;66481;51.332;22.804;2023-05-28T04:32:47;100220.22;;;16.88;48.19
77410;BME280;66481;51.332;22.804;2023-05-28T04:36:49;100217.66;;;17.06;47.21
77410;BME280;66481;51.332;22.804;2023-05-28T04:40:52;100206.50;;;17.30;45.95
77410;BME280;66481;51.332;22.804;2023-05-28T04:44:54;100205.56;;;17.12;46.74
77410;BME280;66481;51.332;22.804;2023-05-28T04:48:55;100205.50;;;17.41;46.36
77410;BME280;66481;51.332;22.804;2023-05-28T04:52:56;100206.69;;;18.03;44.82
77410;BME280;66481;51.332;22.804;2023-05-28T04:56:57;100198.84;;;17.92;45.73
77410;BME280;66481;51.332;22.804;2023-05-28T05:00:58;100197.78;;;17.75;45.40
77410;BME280;66481;51.332;22.804;2023-05-28T05:04:59;100198.84;;;17.92;42.99
77410;BME280;66481;51.332;22.804;2023-05-28T05:09:00;100202.91;;;18.78;43.30
77410;BME280;66481;51.332;22.804;2023-05-28T05:13:01;100212.94;;;19.64;39.20
77410;BME280;66481;51.332;22.804;2023-05-28T05:17:03;100215.09;;;20.38;39.85
77410;BME280;66481;51.332;22.804;2023-05-28T05:21:05;100199.34;;;21.25;37.64
77410;BME280;66481;51.332;22.804;2023-05-28T05:25:07;100202.16;;;19.56;40.34
77410;BME280;66481;51.332;22.804;2023-05-28T05:29:08;100196.88;;;18.94;38.91
77410;BME280;66481;51.332;22.804;2023-05-28T05:33:09;100196.34;;;19.34;40.70
77410;BME280;66481;51.332;22.804;2023-05-28T05:37:10;100210.94;;;18.60;40.83
77410;BME280;66481;51.332;22.804;2023-05-28T05:41:11;100208.03;;;19.07;38.80
77410;BME280;66481;51.332;22.804;2023-05-28T05:45:12;100189.31;;;20.10;41.37
77410;BME280;66481;51.332;22.804;2023-05-28T05:49:14;100180.09;;;20.13;37.71
77410;BME280;66481;51.332;22.804;2023-05-28T05:53:15;100182.22;;;21.01;36.59
77410;BME280;66481;51.332;22.804;2023-05-28T05:57:17;100182.38;;;21.08;36.94
77410;BME280;66481;51.332;22.804;2023-05-28T06:01:20;100190.22;;;20.36;37.10
77410;BME280;66481;51.332;22.804;2023-05-28T06:05:21;100198.16;;;21.28;34.94
77410;BME280;66481;51.332;22.804;2023-05-28T06:09:23;100182.44;;;21.64;32.82
77410;BME280;66481;51.332;22.804;2023-05-28T06:13:25;100182.94;;;21.68;34.23
77410;BME280;66481;51.332;22.804;2023-05-28T06:17:27;100192.78;;;21.28;32.51
77410;BME280;66481;51.332;22.804;2023-05-28T06:21:28;100189.69;;;22.43;31.96
77410;BME280;66481;51.332;22.804;2023-05-28T06:25:29;100190.41;;;23.36;30.74
77410;BME280;66481;51.332;22.804;2023-05-28T06:29:30;100191.09;;;23.38;30.60
77410;BME280;66481;51.332;22.804;2023-05-28T06:33:32;100208.25;;;22.84;30.54
77410;BME280;66481;51.332;22.804;2023-05-28T06:37:34;100203.53;;;21.28;34.08
77410;BME280;66481;51.332;22.804;2023-05-28T06:41:36;100196.03;;;21.79;33.41
77410;BME280;66481;51.332;22.804;2023-05-28T06:45:37;100206.72;;;21.95;32.39
77410;BME280;66481;51.332;22.804;2023-05-28T06:49:39;100196.19;;;22.17;32.88
77410;BME280;66481;51.332;22.804;2023-05-28T06:53:42;100194.06;;;22.04;33.34
77410;BME280;66481;51.332;22.804;2023-05-28T06:57:43;100195.16;;;22.18;35.42
77410;BME280;66481;51.332;22.804;2023-05-28T07:01:45;100190.91;;;22.78;31.43
77410;BME280;66481;51.332;22.804;2023-05-28T07:05:47;100190.97;;;23.31;31.49
77410;BME280;66481;51.332;22.804;2023-05-28T07:09:48;100186.66;;;22.06;33.93
77410;BME280;66481;51.332;22.804;2023-05-28T07:13:50;100182.06;;;24.27;29.06
77410;BME280;66481;51.332;22.804;2023-05-28T07:17:53;100180.22;;;25.20;29.24
77410;BME280;66481;51.332;22.804;2023-05-28T07:21:54;100184.69;;;24.56;28.94
77410;BME280;66481;51.332;22.804;2023-05-28T07:25:56;100167.00;;;26.15;27.56
77410;BME280;66481;51.332;22.804;2023-05-28T07:29:57;100171.81;;;25.08;28.70
77410;BME280;66481;51.332;22.804;2023-05-28T07:33:58;100161.09;;;26.67;27.53
77410;BME280;66481;51.332;22.804;2023-05-28T07:38:01;100160.00;;;26.48;27.54
77410;BME280;66481;51.332;22.804;2023-05-28T07:42:03;100163.47;;;26.15;26.35
77410;BME280;66481;51.332;22.804;2023-05-28T07:46:04;100157.09;;;26.69;26.46
77410;BME280;66481;51.332;22.804;2023-05-28T07:50:06;100160.31;;;26.18;27.94
77410;BME280;66481;51.332;22.804;2023-05-28T07:54:09;100163.50;;;25.80;26.59
77410;BME280;66481;51.332;22.804;2023-05-28T07:58:11;100157.25;;;25.79;29.00
77410;BME280;66481;51.332;22.804;2023-05-28T08:02:16;100134.66;;;28.06;25.04
77410;BME280;66481;51.332;22.804;2023-05-28T08:06:18;100150.00;;;26.68;24.41
77410;BME280;66481;51.332;22.804;2023-05-28T08:10:20;100148.94;;;27.36;23.78
77410;BME280;66481;51.332;22.804;2023-05-28T08:14:21;100144.09;;;26.31;25.03
77410;BME280;66481;51.332;22.804;2023-05-28T08:18:22;100138.25;;;26.34;25.44
77410;BME280;66481;51.332;22.804;2023-05-28T08:22:23;100133.66;;;27.35;25.89
77410;BME280;66481;51.332;22.804;2023-05-28T08:26:24;100136.34;;;26.28;24.24
77410;BME280;66481;51.332;22.804;2023-05-28T08:30:26;100139.97;;;26.82;25.83
77410;BME280;66481;51.332;22.804;2023-05-28T08:34:27;100135.47;;;24.96;27.41
77410;BME280;66481;51.332;22.804;2023-05-28T08:38:29;100130.72;;;25.68;27.23
77410;BME280;66481;51.332;22.804;2023-05-28T08:42:30;100128.06;;;25.88;26.30
77410;BME280;66481;51.332;22.804;2023-05-28T08:46:31;100118.56;;;25.57;24.81
77410;BME280;66481;51.332;22.804;2023-05-28T08:50:36;100123.81;;;25.65;25.90
77410;BME280;66481;51.332;22.804;2023-05-28T08:54:39;100123.69;;;25.80;24.21
77410;BME280;66481;51.332;22.804;2023-05-28T08:58:41;100125.41;;;25.46;24.43
77410;BME280;66481;51.332;22.804;2023-05-28T09:02:44;100130.56;;;22.94;26.67
77410;BME280;66481;51.332;22.804;2023-05-28T09:06:48;100124.88;;;24.51;27.62
77410;BME280;66481;51.332;22.804;2023-05-28T09:10:55;100117.97;;;24.06;25.69
77410;BME280;66481;51.332;22.804;2023-05-28T09:14:57;100113.97;;;24.45;27.10
77410;BME280;66481;51.332;22.804;2023-05-28T09:19:04;100125.19;;;23.98;30.50
77410;BME280;66481;51.332;22.804;2023-05-28T09:23:06;100126.63;;;22.12;30.39
77410;BME280;66481;51.332;22.804;2023-05-28T09:27:07;100125.56;;;24.17;27.11
77410;BME280;66481;51.332;22.804;2023-05-28T09:31:10;100131.53;;;22.40;30.81
77410;BME280;66481;51.332;22.804;2023-05-28T09:35:11;100119.25;;;21.35;30.48
77410;BME280;66481;51.332;22.804;2023-05-28T09:39:12;100111.06;;;21.68;30.06
77410;BME280;66481;51.332;22.804;2023-05-28T09:43:13;100106.31;;;23.09;29.43
77410;BME280;66481;51.332;22.804;2023-05-28T09:47:16;100095.44;;;23.17;27.56
77410;BME280;66481;51.332;22.804;2023-05-28T09:51:19;100098.63;;;22.98;29.98
77410;BME280;66481;51.332;22.804;2023-05-28T09:55:24;100090.06;;;22.41;29.77
77410;BME280;66481;51.332;22.804;2023-05-28T09:59:26;100094.47;;;22.57;33.30
77410;BME280;66481;51.332;22.804;2023-05-28T10:03:44;100082.13;;;23.16;29.75
77410;BME280;66481;51.332;22.804;2023-05-28T10:07:51;100087.09;;;22.36;31.07
77410;BME280;66481;51.332;22.804;2023-05-28T10:12:09;100088.66;;;21.20;31.60
77410;BME280;66481;51.332;22.804;2023-05-28T10:16:11;100072.03;;;21.16;31.64
77410;BME280;66481;51.332;22.804;2023-05-28T10:20:13;100081.28;;;22.62;28.43
77410;BME280;66481;51.332;22.804;2023-05-28T10:24:15;100093.59;;;21.56;32.00
77410;BME280;66481;51.332;22.804;2023-05-28T10:28:19;100093.44;;;20.93;31.34
77410;BME280;66481;51.332;22.804;2023-05-28T10:32:21;100080.53;;;20.56;30.88
77410;BME280;66481;51.332;22.804;2023-05-28T10:36:23;100078.78;;;21.60;30.09
77410;BME280;66481;51.332;22.804;2023-05-28T10:40:25;100066.63;;;22.42;31.17
77410;BME280;66481;51.332;22.804;2023-05-28T10:45:07;100068.44;;;20.68;32.50
77410;BME280;66481;51.332;22.804;2023-05-28T10:49:14;100069.75;;;20.89;32.82
77410;BME280;66481;51.332;22.804;2023-05-28T10:53:17;100069.41;;;21.79;32.66
77410;BME280;66481;51.332;22.804;2023-05-28T10:57:20;100058.81;;;21.77;31.36
77410;BME280;66481;51.332;22.804;2023-05-28T11:01:21;100061.00;;;20.87;35.09
77410;BME280;66481;51.332;22.804;2023-05-28T11:05:23;100056.66;;;20.69;34.90
77410;BME280;66481;51.332;22.804;2023-05-28T11:09:25;100049.25;;;20.79;31.81
77410;BME280;66481;51.332;22.804;2023-05-28T11:13:28;100055.91;;;21.00;32.84
77410;BME280;66481;51.332;22.804;2023-05-28T11:17:29;100057.00;;;21.30;32.42
77410;BME280;66481;51.332;22.804;2023-05-28T11:21:54;100043.69;;;21.37;34.13
77410;BME280;66481;51.332;22.804;2023-05-28T11:25:56;100050.88;;;20.97;33.05
77410;BME280;66481;51.332;22.804;2023-05-28T11:29:59;100046.75;;;19.96;35.89
77410;BME280;66481;51.332;22.804;2023-05-28T11:34:00;100039.19;;;19.99;34.62
77410;BME280;66481;51.332;22.804;2023-05-28T11:38:01;100017.69;;;20.40;32.17
77410;BME280;66481;51.332;22.804;2023-05-28T11:42:03;100027.41;;;20.74;31.38
77410;BME280;66481;51.332;22.804;2023-05-28T11:46:05;100023.03;;;20.48;33.17
77410;BME280;66481;51.332;22.804;2023-05-28T11:50:13;100013.59;;;20.94;35.14
77410;BME280;66481;51.332;22.804;2023-05-28T11:54:15;100015.28;;;21.26;31.04
77410;BME280;66481;51.332;22.804;2023-05-28T11:58:16;100003.16;;;21.30;33.04
77410;BME280;66481;51.332;22.804;2023-05-28T12:02:17;100004.53;;;21.57;34.81
77410;BME280;66481;51.332;22.804;2023-05-28T12:06:22;100002.91;;;21.09;32.38
77410;BME280;66481;51.332;22.804;2023-05-28T12:10:26;99994.53;;;21.03;32.55
77410;BME280;66481;51.332;22.804;2023-05-28T12:14:28;100005.53;;;20.77;33.41
77410;BME280;66481;51.332;22.804;2023-05-28T12:18:30;99992.50;;;20.25;35.72
77410;BME280;66481;51.332;22.804;2023-05-28T12:22:31;99993.63;;;20.72;33.22
77410;BME280;66481;51.332;22.804;2023-05-28T12:26:33;99996.19;;;20.16;38.02
77410;BME280;66481;51.332;22.804;2023-05-28T12:30:34;99994.00;;;21.16;32.75
77410;BME280;66481;51.332;22.804;2023-05-28T12:34:35;100002.38;;;20.74;35.71
77410;BME280;66481;51.332;22.804;2023-05-28T12:38:36;99983.59;;;19.91;33.51
77410;BME280;66481;51.332;22.804;2023-05-28T12:42:37;99981.09;;;20.23;34.48
77410;BME280;66481;51.332;22.804;2023-05-28T12:46:38;99977.72;;;20.21;32.52
77410;BME280;66481;51.332;22.804;2023-05-28T12:50:39;99987.47;;;20.05;33.17
77410;BME280;66481;51.332;22.804;2023-05-28T12:54:40;99981.25;;;20.13;35.92
77410;BME280;66481;51.332;22.804;2023-05-28T12:58:42;99976.72;;;20.14;31.84
77410;BME280;66481;51.332;22.804;2023-05-28T13:02:43;99974.84;;;20.22;33.61
77410;BME280;66481;51.332;22.804;2023-05-28T13:06:45;99962.69;;;20.76;34.66
77410;BME280;66481;51.332;22.804;2023-05-28T13:10:46;99965.56;;;20.58;36.24
77410;BME280;66481;51.332;22.804;2023-05-28T13:14:47;99970.50;;;19.97;34.99
77410;BME280;66481;51.332;22.804;2023-05-28T13:18:48;99960.53;;;20.46;33.65
77410;BME280;66481;51.332;22.804;2023-05-28T13:22:49;99959.94;;;20.28;33.92
77410;BME280;66481;51.332;22.804;2023-05-28T13:26:50;99968.31;;;19.76;33.08
77410;BME280;66481;51.332;22.804;2023-05-28T13:30:51;99949.00;;;20.05;31.79
77410;BME280;66481;51.332;22.804;2023-05-28T13:34:52;99953.84;;;20.34;32.17
77410;BME280;66481;51.332;22.804;2023-05-28T13:38:53;99956.91;;;20.15;36.57
77410;BME280;66481;51.332;22.804;2023-05-28T13:42:55;99943.81;;;20.12;35.56
77410;BME280;66481;51.332;22.804;2023-05-28T13:46:56;99948.84;;;19.98;36.82
77410;BME280;66481;51.332;22.804;2023-05-28T13:50:59;99935.72;;;19.70;33.11
77410;BME280;66481;51.332;22.804;2023-05-28T13:55:00;99940.13;;;19.96;33.27
77410;BME280;66481;51.332;22.804;2023-05-28T13:59:02;99927.34;;;19.73;34.70
77410;BME280;66481;51.332;22.804;2023-05-28T14:03:03;99932.06;;;19.88;37.17
77410;BME280;66481;51.332;22.804;2023-05-28T14:07:03;99919.47;;;19.80;33.35
77410;BME280;66481;51.332;22.804;2023-05-28T14:11:05;99914.59;;;19.76;37.19
77410;BME280;66481;51.332;22.804;2023-05-28T14:15:07;99912.78;;;19.76;39.10
77410;BME280;66481;51.332;22.804;2023-05-28T14:19:08;99906.03;;;19.72;34.08
77410;BME280;66481;51.332;22.804;2023-05-28T14:23:09;99897.78;;;19.65;34.45
77410;BME280;66481;51.332;22.804;2023-05-28T14:27:11;99899.16;;;19.78;32.10
77410;BME280;66481;51.332;22.804;2023-05-28T14:31:12;99888.59;;;19.92;32.97
77410;BME280;66481;51.332;22.804;2023-05-28T14:35:13;99887.94;;;19.99;32.74
77410;BME280;66481;51.332;22.804;2023-05-28T14:39:14;99887.09;;;19.90;32.92
77410;BME280;66481;51.332;22.804;2023-05-28T14:43:16;99887.56;;;19.69;32.26
77410;BME280;66481;51.332;22.804;2023-05-28T14:47:17;99895.81;;;19.92;39.17
77410;BME280;66481;51.332;22.804;2023-05-28T14:51:18;99882.72;;;19.81;34.31
77410;BME280;66481;51.332;22.804;2023-05-28T14:55:20;99869.78;;;19.84;35.71
77410;BME280;66481;51.332;22.804;2023-05-28T14:59:21;99871.66;;;19.76;33.72
77410;BME280;66481;51.332;22.804;2023-05-28T15:03:22;99872.31;;;19.61;36.22
77410;BME280;66481;51.332;22.804;2023-05-28T15:07:24;99865.13;;;19.86;33.98
77410;BME280;66481;51.332;22.804;2023-05-28T15:11:26;99870.66;;;19.85;36.52
77410;BME280;66481;51.332;22.804;2023-05-28T15:15:27;99853.69;;;19.84;35.25
77410;BME280;66481;51.332;22.804;2023-05-28T15:19:28;99853.00;;;19.90;34.21
77410;BME280;66481;51.332;22.804;2023-05-28T15:23:29;99864.75;;;19.89;36.14
77410;BME280;66481;51.332;22.804;2023-05-28T15:27:31;99853.84;;;19.42;34.76
77410;BME280;66481;51.332;22.804;2023-05-28T15:31:32;99855.19;;;19.29;34.46
77410;BME280;66481;51.332;22.804;2023-05-28T15:35:33;99859.03;;;19.27;36.17
77410;BME280;66481;51.332;22.804;2023-05-28T15:39:35;99860.72;;;19.44;33.92
77410;BME280;66481;51.332;22.804;2023-05-28T15:43:36;99865.56;;;19.41;34.98
77410;BME280;66481;51.332;22.804;2023-05-28T15:47:37;99858.69;;;19.46;36.89
77410;BME280;66481;51.332;22.804;2023-05-28T15:51:38;99856.53;;;19.58;35.11
77410;BME280;66481;51.332;22.804;2023-05-28T15:55:39;99856.84;;;19.30;36.17
77410;BME280;66481;51.332;22.804;2023-05-28T15:59:40;99850.78;;;19.20;34.71
77410;BME280;66481;51.332;22.804;2023-05-28T16:03:43;99843.75;;;19.11;36.95
77410;BME280;66481;51.332;22.804;2023-05-28T16:07:44;99842.88;;;18.94;36.32
77410;BME280;66481;51.332;22.804;2023-05-28T16:11:49;99851.44;;;19.06;35.69
77410;BME280;66481;51.332;22.804;2023-05-28T16:15:53;99848.59;;;18.99;37.70
77410;BME280;66481;51.332;22.804;2023-05-28T16:19:55;99853.81;;;19.09;38.84
77410;BME280;66481;51.332;22.804;2023-05-28T16:23:57;99839.03;;;18.96;38.68
77410;BME280;66481;51.332;22.804;2023-05-28T16:27:58;99855.19;;;18.78;37.82
77410;BME280;66481;51.332;22.804;2023-05-28T16:31:59;99838.25;;;18.70;43.61
77410;BME280;66481;51.332;22.804;2023-05-28T16:36:01;99845.81;;;18.74;41.08
77410;BME280;66481;51.332;22.804;2023-05-28T16:40:03;99844.28;;;18.72;38.60
77410;BME280;66481;51.332;22.804;2023-05-28T16:44:10;99847.97;;;18.71;43.45
77410;BME280;66481;51.332;22.804;2023-05-28T16:48:11;99849.09;;;18.60;37.67
77410;BME280;66481;51.332;22.804;2023-05-28T16:52:13;99840.53;;;18.56;39.15
77410;BME280;66481;51.332;22.804;2023-05-28T16:56:15;99847.56;;;18.49;41.51
77410;BME280;66481;51.332;22.804;2023-05-28T17:00:16;99844.56;;;18.52;40.10
77410;BME280;66481;51.332;22.804;2023-05-28T17:04:21;99835.56;;;18.27;42.69
77410;BME280;66481;51.332;22.804;2023-05-28T17:08:22;99838.16;;;18.11;44.38
77410;BME280;66481;51.332;22.804;2023-05-28T17:12:23;99841.00;;;18.09;43.16
77410;BME280;66481;51.332;22.804;2023-05-28T17:16:25;99837.59;;;17.99;46.67
77410;BME280;66481;51.332;22.804;2023-05-28T17:20:26;99840.53;;;17.70;48.36
77410;BME280;66481;51.332;22.804;2023-05-28T17:24:28;99845.25;;;17.50;50.43
77410;BME280;66481;51.332;22.804;2023-05-28T17:28:29;99851.75;;;17.29;51.01
77410;BME280;66481;51.332;22.804;2023-05-28T17:32:30;99842.28;;;17.17;48.44
77410;BME280;66481;51.332;22.804;2023-05-28T17:36:32;99844.88;;;16.90;51.19
77410;BME280;66481;51.332;22.804;2023-05-28T17:40:33;99841.47;;;16.61;52.27
77410;BME280;66481;51.332;22.804;2023-05-28T17:44:34;99847.75;;;16.42;52.31
77410;BME280;66481;51.332;22.804;2023-05-28T17:48:36;99839.84;;;16.22;52.63
77410;BME280;66481;51.332;22.804;2023-05-28T17:52:37;99841.56;;;16.04;54.09
77410;BME280;66481;51.332;22.804;2023-05-28T17:56:38;99840.53;;;15.77;56.27
77410;BME280;66481;51.332;22.804;2023-05-28T18:00:39;99842.78;;;15.42;59.42
77410;BME280;66481;51.332;22.804;2023-05-28T18:04:41;99850.34;;;15.08;62.90
77410;BME280;66481;51.332;22.804;2023-05-28T18:08:43;99855.63;;;14.69;64.75
77410;BME280;66481;51.332;22.804;2023-05-28T18:12:45;99858.16;;;14.40;63.72
77410;BME280;66481;51.332;22.804;2023-05-28T18:16:47;99850.31;;;14.38;61.36
77410;BME280;66481;51.332;22.804;2023-05-28T18:20:49;99858.47;;;14.46;60.42
77410;BME280;66481;51.332;22.804;2023-05-28T18:24:51;99853.22;;;14.04;65.68
77410;BME280;66481;51.332;22.804;2023-05-28T18:28:53;99849.69;;;13.73;63.04
77410;BME280;66481;51.332;22.804;2023-05-28T18:32:55;99862.19;;;13.40;66.42
77410;BME280;66481;51.332;22.804;2023-05-28T18:36:56;99860.41;;;13.18;65.84
77410;BME280;66481;51.332;22.804;2023-05-28T18:40:59;99862.41;;;13.05;64.66
77410;BME280;66481;51.332;22.804;2023-05-28T18:45:01;99854.47;;;12.93;64.16
77410;BME280;66481;51.332;22.804;2023-05-28T18:49:07;99879.22;;;12.94;66.27
77410;BME280;66481;51.332;22.804;2023-05-28T18:53:09;99881.31;;;12.79;64.68
77410;BME280;66481;51.332;22.804;2023-05-28T18:57:10;99880.13;;;12.72;65.12
77410;BME280;66481;51.332;22.804;2023-05-28T19:01:12;99891.81;;;12.69;67.70
77410;BME280;66481;51.332;22.804;2023-05-28T19:05:13;99886.53;;;12.58;68.29
77410;BME280;66481;51.332;22.804;2023-05-28T19:09:15;99895.59;;;12.44;68.31
77410;BME280;66481;51.332;22.804;2023-05-28T19:13:16;99898.44;;;12.30;68.67
77410;BME280;66481;51.332;22.804;2023-05-28T19:17:18;99900.25;;;12.18;68.71
77410;BME280;66481;51.332;22.804;2023-05-28T19:21:20;99896.38;;;11.99;70.26
77410;BME280;66481;51.332;22.804;2023-05-28T19:25:22;99896.31;;;11.88;71.04
77410;BME280;66481;51.332;22.804;2023-05-28T19:29:26;99889.66;;;11.82;69.80
77410;BME280;66481;51.332;22.804;2023-05-28T19:33:28;99901.88;;;11.61;70.69
77410;BME280;66481;51.332;22.804;2023-05-28T19:37:30;99898.09;;;11.41;73.86
77410;BME280;66481;51.332;22.804;2023-05-28T19:41:31;99891.59;;;11.21;75.36
77410;BME280;66481;51.332;22.804;2023-05-28T19:45:33;99894.47;;;10.94;75.16
77410;BME280;66481;51.332;22.804;2023-05-28T19:49:35;99897.16;;;10.81;75.59
77410;BME280;66481;51.332;22.804;2023-05-28T19:53:37;99895.22;;;10.83;75.05
77410;BME280;66481;51.332;22.804;2023-05-28T19:57:40;99904.66;;;10.87;75.62
77410;BME280;66481;51.332;22.804;2023-05-28T20:01:42;99895.81;;;10.75;76.84
77410;BME280;66481;51.332;22.804;2023-05-28T20:05:46;99900.88;;;10.65;78.16
77410;BME280;66481;51.332;22.804;2023-05-28T20:09:48;99905.38;;;10.52;76.39
77410;BME280;66481;51.332;22.804;2023-05-28T20:13:49;99913.63;;;10.47;77.89
77410;BME280;66481;51.332;22.804;2023-05-28T20:17:51;99916.56;;;10.30;79.96
77410;BME280;66481;51.332;22.804;2023-05-28T20:21:53;99908.94;;;10.00;80.98
77410;BME280;66481;51.332;22.804;2023-05-28T20:25:54;99914.19;;;9.74;82.43
77410;BME280;66481;51.332;22.804;2023-05-28T20:29:56;99918.28;;;9.52;84.54
77410;BME280;66481;51.332;22.804;2023-05-28T20:33:58;99931.31;;;9.41;85.96
77410;BME280;66481;51.332;22.804;2023-05-28T20:38:00;99931.19;;;9.30;85.62
77410;BME280;66481;51.332;22.804;2023-05-28T20:42:07;99924.53;;;9.24;85.53
77410;BME280;66481;51.332;22.804;2023-05-28T20:46:10;99917.72;;;9.20;87.06
77410;BME280;66481;51.332;22.804;2023-05-28T20:50:12;99922.38;;;9.16;86.92
77410;BME280;66481;51.332;22.804;2023-05-28T20:54:14;99920.88;;;9.12;86.91
77410;BME280;66481;51.332;22.804;2023-05-28T20:58:16;99919.19;;;9.11;85.36